sensor_id;sensor_type;location;lat;lon;timestamp;P1;durP1;ratioP1;P2;durP2;ratioP2
53881;SDS011;39794;55.782;37.452;2023-12-22T00:00:35;8.23;;;4.60;;
53881;SDS011;39794;55.782;37.452;2023-12-22T00:03:04;7.97;;;4.50;;
53881;SDS011;39794;55.782;37.452;2023-12-22T00:05:34;10.38;;;4.72;;
53881;SDS011;39794;55.782;37.452;2023-12-22T00:08:03;6.57;;;4.20;;
53881;SDS011;39794;55.782;37.452;2023-12-22T00:10:32;8.43;;;4.82;;
53881;SDS011;39794;55.782;37.452;2023-12-22T00:13:00;7.75;;;4.88;;
53881;SDS011;39794;55.782;37.452;2023-12-22T00:15:29;8.20;;;4.70;;
53881;SDS011;39794;55.782;37.452;2023-12-22T00:17:58;9.60;;;5.28;;
53881;SDS011;39794;55.782;37.452;2023-12-22T00:20:27;9.55;;;5.40;;
53881;SDS011;39794;55.782;37.452;2023-12-22T00:22:57;7.60;;;4.65;;
53881;SDS011;39794;55.782;37.452;2023-12-22T00:25:25;8.90;;;5.50;;
53881;SDS011;39794;55.782;37.452;2023-12-22T00:27:54;8.98;;;5.00;;
53881;SDS011;39794;55.782;37.452;2023-12-22T00:30:22;9.05;;;5.10;;
53881;SDS011;39794;55.782;37.452;2023-12-22T00:32:52;9.18;;;4.50;;
53881;SDS011;39794;55.782;37.452;2023-12-22T00:35:20;7.05;;;4.63;;
53881;SDS011;39794;55.782;37.452;2023-12-22T00:37:49;7.65;;;5.07;;
53881;SDS011;39794;55.782;37.452;2023-12-22T00:40:19;8.30;;;5.10;;
53881;SDS011;39794;55.782;37.452;2023-12-22T00:42:47;9.00;;;5.25;;
53881;SDS011;39794;55.782;37.452;2023-12-22T00:45:16;7.00;;;4.22;;
53881;SDS011;39794;55.782;37.452;2023-12-22T00:47:45;9.55;;;4.85;;
53881;SDS011;39794;55.782;37.452;2023-12-22T00:50:14;6.75;;;4.50;;
53881;SDS011;39794;55.782;37.452;2023-12-22T00:52:43;8.68;;;4.45;;
53881;SDS011;39794;55.782;37.452;2023-12-22T00:55:11;7.65;;;4.70;;
53881;SDS011;39794;55.782;37.452;2023-12-22T00:57:42;8.45;;;5.05;;
53881;SDS011;39794;55.782;37.452;2023-12-22T01:00:11;7.03;;;4.50;;
53881;SDS011;39794;55.782;37.452;2023-12-22T01:02:41;7.65;;;4.93;;
53881;SDS011;39794;55.782;37.452;2023-12-22T01:05:09;7.30;;;4.82;;
53881;SDS011;39794;55.782;37.452;2023-12-22T01:07:38;6.75;;;4.38;;
53881;SDS011;39794;55.782;37.452;2023-12-22T01:10:07;7.22;;;4.30;;
53881;SDS011;39794;55.782;37.452;2023-12-22T01:12:37;7.78;;;4.28;;
53881;SDS011;39794;55.782;37.452;2023-12-22T01:15:07;8.32;;;4.28;;
53881;SDS011;39794;55.782;37.452;2023-12-22T01:17:36;8.15;;;4.80;;
53881;SDS011;39794;55.782;37.452;2023-12-22T01:20:05;7.00;;;3.97;;
53881;SDS011;39794;55.782;37.452;2023-12-22T01:22:34;5.97;;;3.83;;
53881;SDS011;39794;55.782;37.452;2023-12-22T01:25:05;8.85;;;4.57;;
53881;SDS011;39794;55.782;37.452;2023-12-22T01:27:34;8.10;;;4.22;;
53881;SDS011;39794;55.782;37.452;2023-12-22T01:30:02;7.85;;;4.55;;
53881;SDS011;39794;55.782;37.452;2023-12-22T01:32:33;6.82;;;4.63;;
53881;SDS011;39794;55.782;37.452;2023-12-22T01:35:03;9.65;;;4.50;;
53881;SDS011;39794;55.782;37.452;2023-12-22T01:37:36;6.20;;;4.45;;
53881;SDS011;39794;55.782;37.452;2023-12-22T01:40:05;5.28;;;3.72;;
53881;SDS011;39794;55.782;37.452;2023-12-22T01:42:35;8.27;;;5.00;;
53881;SDS011;39794;55.782;37.452;2023-12-22T01:45:04;8.40;;;4.97;;
53881;SDS011;39794;55.782;37.452;2023-12-22T01:47:34;7.30;;;4.70;;
53881;SDS011;39794;55.782;37.452;2023-12-22T01:50:04;6.50;;;4.25;;
53881;SDS011;39794;55.782;37.452;2023-12-22T01:52:33;9.45;;;4.45;;
53881;SDS011;39794;55.782;37.452;2023-12-22T01:55:03;8.95;;;4.75;;
53881;SDS011;39794;55.782;37.452;2023-12-22T01:57:32;8.27;;;4.40;;
53881;SDS011;39794;55.782;37.452;2023-12-22T02:00:01;6.53;;;4.03;;
53881;SDS011;39794;55.782;37.452;2023-12-22T02:02:40;7.13;;;4.68;;
53881;SDS011;39794;55.782;37.452;2023-12-22T02:05:09;8.15;;;4.13;;
53881;SDS011;39794;55.782;37.452;2023-12-22T02:07:40;6.22;;;4.22;;
53881;SDS011;39794;55.782;37.452;2023-12-22T02:10:09;7.00;;;3.80;;
53881;SDS011;39794;55.782;37.452;2023-12-22T02:12:38;6.47;;;4.22;;
53881;SDS011;39794;55.782;37.452;2023-12-22T02:15:07;5.03;;;3.65;;
53881;SDS011;39794;55.782;37.452;2023-12-22T02:17:43;6.55;;;3.97;;
53881;SDS011;39794;55.782;37.452;2023-12-22T02:20:37;9.05;;;4.60;;
53881;SDS011;39794;55.782;37.452;2023-12-22T02:23:08;5.68;;;3.92;;
53881;SDS011;39794;55.782;37.452;2023-12-22T02:25:36;6.55;;;3.92;;
53881;SDS011;39794;55.782;37.452;2023-12-22T02:28:05;6.25;;;4.45;;
53881;SDS011;39794;55.782;37.452;2023-12-22T02:30:37;7.13;;;4.60;;
53881;SDS011;39794;55.782;37.452;2023-12-22T02:33:10;7.22;;;4.47;;
53881;SDS011;39794;55.782;37.452;2023-12-22T02:35:38;6.45;;;3.97;;
53881;SDS011;39794;55.782;37.452;2023-12-22T02:38:09;7.60;;;4.13;;
53881;SDS011;39794;55.782;37.452;2023-12-22T02:40:40;9.27;;;4.53;;
53881;SDS011;39794;55.782;37.452;2023-12-22T02:43:09;8.85;;;4.20;;
53881;SDS011;39794;55.782;37.452;2023-12-22T02:45:37;7.07;;;4.18;;
53881;SDS011;39794;55.782;37.452;2023-12-22T02:48:06;6.38;;;4.00;;
53881;SDS011;39794;55.782;37.452;2023-12-22T02:50:35;7.93;;;4.45;;
53881;SDS011;39794;55.782;37.452;2023-12-22T02:53:04;6.93;;;4.28;;
53881;SDS011;39794;55.782;37.452;2023-12-22T02:55:33;5.72;;;3.83;;
53881;SDS011;39794;55.782;37.452;2023-12-22T02:58:02;8.25;;;4.68;;
53881;SDS011;39794;55.782;37.452;2023-12-22T03:00:31;7.03;;;3.78;;
53881;SDS011;39794;55.782;37.452;2023-12-22T03:02:59;6.47;;;4.07;;
53881;SDS011;39794;55.782;37.452;2023-12-22T03:05:28;7.32;;;4.22;;
53881;SDS011;39794;55.782;37.452;2023-12-22T03:07:56;6.38;;;3.88;;
53881;SDS011;39794;55.782;37.452;2023-12-22T03:10:25;7.13;;;3.88;;
53881;SDS011;39794;55.782;37.452;2023-12-22T03:12:55;6.63;;;4.03;;
53881;SDS011;39794;55.782;37.452;2023-12-22T03:15:24;6.63;;;3.90;;
53881;SDS011;39794;55.782;37.452;2023-12-22T03:17:53;7.50;;;4.43;;
53881;SDS011;39794;55.782;37.452;2023-12-22T03:20:21;8.82;;;4.32;;
53881;SDS011;39794;55.782;37.452;2023-12-22T03:22:50;9.35;;;4.97;;
53881;SDS011;39794;55.782;37.452;2023-12-22T03:25:19;8.88;;;4.35;;
53881;SDS011;39794;55.782;37.452;2023-12-22T03:27:47;7.35;;;4.32;;
53881;SDS011;39794;55.782;37.452;2023-12-22T03:30:17;8.38;;;4.38;;
53881;SDS011;39794;55.782;37.452;2023-12-22T03:32:46;8.18;;;4.70;;
53881;SDS011;39794;55.782;37.452;2023-12-22T03:35:15;7.10;;;4.10;;
53881;SDS011;39794;55.782;37.452;2023-12-22T03:37:43;7.88;;;4.57;;
53881;SDS011;39794;55.782;37.452;2023-12-22T03:40:13;8.50;;;4.82;;
53881;SDS011;39794;55.782;37.452;2023-12-22T03:42:41;7.80;;;4.90;;
53881;SDS011;39794;55.782;37.452;2023-12-22T03:45:10;8.45;;;4.88;;
53881;SDS011;39794;55.782;37.452;2023-12-22T03:47:40;7.57;;;4.35;;
53881;SDS011;39794;55.782;37.452;2023-12-22T03:50:08;7.75;;;4.60;;
53881;SDS011;39794;55.782;37.452;2023-12-22T03:52:37;7.63;;;4.90;;
53881;SDS011;39794;55.782;37.452;2023-12-22T03:55:06;7.15;;;4.60;;
53881;SDS011;39794;55.782;37.452;2023-12-22T03:57:34;9.77;;;5.55;;
53881;SDS011;39794;55.782;37.452;2023-12-22T04:00:03;8.60;;;5.28;;
53881;SDS011;39794;55.782;37.452;2023-12-22T04:02:32;10.63;;;5.72;;
53881;SDS011;39794;55.782;37.452;2023-12-22T04:05:02;9.68;;;5.10;;
53881;SDS011;39794;55.782;37.452;2023-12-22T04:07:31;10.73;;;5.30;;
53881;SDS011;39794;55.782;37.452;2023-12-22T04:10:00;7.50;;;4.63;;
53881;SDS011;39794;55.782;37.452;2023-12-22T04:12:29;13.68;;;4.85;;
53881;SDS011;39794;55.782;37.452;2023-12-22T04:14:57;7.82;;;4.65;;
53881;SDS011;39794;55.782;37.452;2023-12-22T04:17:26;11.40;;;5.80;;
53881;SDS011;39794;55.782;37.452;2023-12-22T04:19:54;10.63;;;6.25;;
53881;SDS011;39794;55.782;37.452;2023-12-22T04:22:24;9.10;;;5.05;;
53881;SDS011;39794;55.782;37.452;2023-12-22T04:24:53;11.73;;;6.50;;
53881;SDS011;39794;55.782;37.452;2023-12-22T04:27:21;9.60;;;5.68;;
53881;SDS011;39794;55.782;37.452;2023-12-22T04:29:50;9.50;;;5.75;;
53881;SDS011;39794;55.782;37.452;2023-12-22T04:32:18;10.63;;;5.90;;
53881;SDS011;39794;55.782;37.452;2023-12-22T04:34:47;9.23;;;5.45;;
53881;SDS011;39794;55.782;37.452;2023-12-22T04:37:16;8.13;;;5.60;;
53881;SDS011;39794;55.782;37.452;2023-12-22T04:39:46;10.68;;;5.85;;
53881;SDS011;39794;55.782;37.452;2023-12-22T04:42:15;10.48;;;5.55;;
53881;SDS011;39794;55.782;37.452;2023-12-22T04:44:43;8.35;;;5.40;;
53881;SDS011;39794;55.782;37.452;2023-12-22T04:47:11;7.28;;;4.57;;
53881;SDS011;39794;55.782;37.452;2023-12-22T04:49:41;8.32;;;5.60;;
53881;SDS011;39794;55.782;37.452;2023-12-22T04:52:10;9.35;;;5.10;;
53881;SDS011;39794;55.782;37.452;2023-12-22T04:54:39;9.57;;;5.53;;
53881;SDS011;39794;55.782;37.452;2023-12-22T04:57:09;7.13;;;5.15;;
53881;SDS011;39794;55.782;37.452;2023-12-22T04:59:37;9.80;;;5.55;;
53881;SDS011;39794;55.782;37.452;2023-12-22T05:02:06;9.23;;;5.68;;
53881;SDS011;39794;55.782;37.452;2023-12-22T05:04:34;10.43;;;5.03;;
53881;SDS011;39794;55.782;37.452;2023-12-22T05:07:03;9.77;;;5.50;;
53881;SDS011;39794;55.782;37.452;2023-12-22T05:09:33;10.90;;;5.28;;
53881;SDS011;39794;55.782;37.452;2023-12-22T05:12:03;8.40;;;5.40;;
53881;SDS011;39794;55.782;37.452;2023-12-22T05:14:33;8.77;;;5.57;;
53881;SDS011;39794;55.782;37.452;2023-12-22T05:17:02;9.07;;;5.63;;
53881;SDS011;39794;55.782;37.452;2023-12-22T05:19:30;9.60;;;5.45;;
53881;SDS011;39794;55.782;37.452;2023-12-22T05:21:59;9.70;;;5.88;;
53881;SDS011;39794;55.782;37.452;2023-12-22T05:24:28;9.45;;;6.22;;
53881;SDS011;39794;55.782;37.452;2023-12-22T05:26:56;9.38;;;5.82;;
53881;SDS011;39794;55.782;37.452;2023-12-22T05:29:24;7.88;;;5.18;;
53881;SDS011;39794;55.782;37.452;2023-12-22T05:31:54;10.05;;;5.50;;
53881;SDS011;39794;55.782;37.452;2023-12-22T05:34:23;11.27;;;6.05;;
53881;SDS011;39794;55.782;37.452;2023-12-22T05:36:51;9.23;;;5.72;;
53881;SDS011;39794;55.782;37.452;2023-12-22T05:39:20;10.23;;;6.38;;
53881;SDS011;39794;55.782;37.452;2023-12-22T05:41:48;10.40;;;5.82;;
53881;SDS011;39794;55.782;37.452;2023-12-22T05:44:17;11.50;;;6.38;;
53881;SDS011;39794;55.782;37.452;2023-12-22T05:46:46;12.70;;;6.90;;
53881;SDS011;39794;55.782;37.452;2023-12-22T05:49:16;11.40;;;6.50;;
53881;SDS011;39794;55.782;37.452;2023-12-22T05:51:45;13.07;;;7.10;;
53881;SDS011;39794;55.782;37.452;2023-12-22T05:54:13;12.05;;;6.97;;
53881;SDS011;39794;55.782;37.452;2023-12-22T05:56:42;14.70;;;6.97;;
53881;SDS011;39794;55.782;37.452;2023-12-22T05:59:10;12.32;;;7.55;;
53881;SDS011;39794;55.782;37.452;2023-12-22T06:01:39;13.32;;;7.32;;
53881;SDS011;39794;55.782;37.452;2023-12-22T06:04:07;13.77;;;7.20;;
53881;SDS011;39794;55.782;37.452;2023-12-22T06:06:37;14.57;;;8.07;;
53881;SDS011;39794;55.782;37.452;2023-12-22T06:09:06;12.95;;;6.80;;
53881;SDS011;39794;55.782;37.452;2023-12-22T06:11:34;13.00;;;6.95;;
53881;SDS011;39794;55.782;37.452;2023-12-22T06:14:03;14.48;;;6.85;;
53881;SDS011;39794;55.782;37.452;2023-12-22T06:16:31;15.50;;;8.48;;
53881;SDS011;39794;55.782;37.452;2023-12-22T06:19:00;13.02;;;8.05;;
53881;SDS011;39794;55.782;37.452;2023-12-22T06:21:29;13.23;;;8.00;;
53881;SDS011;39794;55.782;37.452;2023-12-22T06:23:59;16.70;;;8.85;;
53881;SDS011;39794;55.782;37.452;2023-12-22T06:26:30;17.98;;;9.20;;
53881;SDS011;39794;55.782;37.452;2023-12-22T06:28:59;19.92;;;9.88;;
53881;SDS011;39794;55.782;37.452;2023-12-22T06:31:28;13.77;;;7.85;;
53881;SDS011;39794;55.782;37.452;2023-12-22T06:33:56;15.82;;;7.72;;
53881;SDS011;39794;55.782;37.452;2023-12-22T06:36:29;17.33;;;9.10;;
53881;SDS011;39794;55.782;37.452;2023-12-22T06:38:59;16.33;;;9.73;;
53881;SDS011;39794;55.782;37.452;2023-12-22T06:41:28;15.32;;;8.52;;
53881;SDS011;39794;55.782;37.452;2023-12-22T06:43:58;19.13;;;9.73;;
53881;SDS011;39794;55.782;37.452;2023-12-22T06:46:28;17.10;;;9.55;;
53881;SDS011;39794;55.782;37.452;2023-12-22T06:48:57;14.82;;;9.32;;
53881;SDS011;39794;55.782;37.452;2023-12-22T06:51:30;17.80;;;9.68;;
53881;SDS011;39794;55.782;37.452;2023-12-22T06:54:03;18.55;;;9.30;;
53881;SDS011;39794;55.782;37.452;2023-12-22T06:56:33;14.07;;;8.60;;
53881;SDS011;39794;55.782;37.452;2023-12-22T06:59:02;19.63;;;9.40;;
53881;SDS011;39794;55.782;37.452;2023-12-22T07:01:32;12.13;;;7.47;;
53881;SDS011;39794;55.782;37.452;2023-12-22T07:04:02;16.90;;;9.55;;
53881;SDS011;39794;55.782;37.452;2023-12-22T07:06:31;15.25;;;8.18;;
53881;SDS011;39794;55.782;37.452;2023-12-22T07:12:01;14.05;;;8.65;;
53881;SDS011;39794;55.782;37.452;2023-12-22T07:14:30;14.48;;;8.95;;
53881;SDS011;39794;55.782;37.452;2023-12-22T07:17:01;15.10;;;9.57;;
53881;SDS011;39794;55.782;37.452;2023-12-22T07:19:30;14.55;;;8.63;;
53881;SDS011;39794;55.782;37.452;2023-12-22T07:21:58;15.57;;;9.10;;
53881;SDS011;39794;55.782;37.452;2023-12-22T07:24:29;13.95;;;8.73;;
53881;SDS011;39794;55.782;37.452;2023-12-22T07:26:58;14.30;;;8.02;;
53881;SDS011;39794;55.782;37.452;2023-12-22T07:29:27;20.48;;;9.30;;
53881;SDS011;39794;55.782;37.452;2023-12-22T07:31:56;14.35;;;8.65;;
53881;SDS011;39794;55.782;37.452;2023-12-22T07:34:26;15.45;;;9.52;;
53881;SDS011;39794;55.782;37.452;2023-12-22T07:36:55;15.95;;;9.68;;
53881;SDS011;39794;55.782;37.452;2023-12-22T07:39:32;14.90;;;9.38;;
53881;SDS011;39794;55.782;37.452;2023-12-22T07:42:05;15.38;;;9.07;;
53881;SDS011;39794;55.782;37.452;2023-12-22T07:44:34;18.70;;;9.88;;
53881;SDS011;39794;55.782;37.452;2023-12-22T07:47:03;16.48;;;9.45;;
53881;SDS011;39794;55.782;37.452;2023-12-22T07:49:34;15.00;;;8.65;;
53881;SDS011;39794;55.782;37.452;2023-12-22T07:52:01;13.95;;;9.27;;
53881;SDS011;39794;55.782;37.452;2023-12-22T07:54:30;17.50;;;9.63;;
53881;SDS011;39794;55.782;37.452;2023-12-22T07:56:58;13.80;;;8.88;;
53881;SDS011;39794;55.782;37.452;2023-12-22T07:59:29;13.65;;;9.23;;
53881;SDS011;39794;55.782;37.452;2023-12-22T08:01:58;12.15;;;7.50;;
53881;SDS011;39794;55.782;37.452;2023-12-22T08:04:27;14.00;;;7.30;;
53881;SDS011;39794;55.782;37.452;2023-12-22T08:06:55;18.67;;;8.25;;
53881;SDS011;39794;55.782;37.452;2023-12-22T08:09:24;15.93;;;8.65;;
53881;SDS011;39794;55.782;37.452;2023-12-22T08:11:52;12.32;;;7.78;;
53881;SDS011;39794;55.782;37.452;2023-12-22T08:14:23;15.18;;;7.93;;
53881;SDS011;39794;55.782;37.452;2023-12-22T08:16:53;13.63;;;8.15;;
53881;SDS011;39794;55.782;37.452;2023-12-22T08:19:21;18.42;;;8.55;;
53881;SDS011;39794;55.782;37.452;2023-12-22T08:21:53;14.35;;;7.53;;
53881;SDS011;39794;55.782;37.452;2023-12-22T08:24:22;9.65;;;5.47;;
53881;SDS011;39794;55.782;37.452;2023-12-22T08:26:50;9.10;;;5.88;;
53881;SDS011;39794;55.782;37.452;2023-12-22T08:29:19;10.70;;;6.55;;
53881;SDS011;39794;55.782;37.452;2023-12-22T08:31:48;9.45;;;6.20;;
53881;SDS011;39794;55.782;37.452;2023-12-22T08:34:18;12.30;;;6.47;;
53881;SDS011;39794;55.782;37.452;2023-12-22T08:36:51;9.93;;;6.15;;
53881;SDS011;39794;55.782;37.452;2023-12-22T08:39:20;10.60;;;5.80;;
53881;SDS011;39794;55.782;37.452;2023-12-22T08:41:51;13.25;;;6.43;;
53881;SDS011;39794;55.782;37.452;2023-12-22T08:44:20;9.85;;;5.95;;
53881;SDS011;39794;55.782;37.452;2023-12-22T08:46:49;9.15;;;5.70;;
53881;SDS011;39794;55.782;37.452;2023-12-22T08:49:19;8.32;;;5.40;;
53881;SDS011;39794;55.782;37.452;2023-12-22T08:51:48;10.45;;;5.70;;
53881;SDS011;39794;55.782;37.452;2023-12-22T08:54:17;12.77;;;5.90;;
53881;SDS011;39794;55.782;37.452;2023-12-22T08:56:46;8.98;;;5.43;;
53881;SDS011;39794;55.782;37.452;2023-12-22T08:59:14;7.82;;;5.45;;
53881;SDS011;39794;55.782;37.452;2023-12-22T09:01:43;10.30;;;5.95;;
53881;SDS011;39794;55.782;37.452;2023-12-22T09:04:12;9.07;;;4.78;;
53881;SDS011;39794;55.782;37.452;2023-12-22T09:06:41;12.27;;;5.72;;
53881;SDS011;39794;55.782;37.452;2023-12-22T09:09:10;10.88;;;5.90;;
53881;SDS011;39794;55.782;37.452;2023-12-22T09:11:38;12.20;;;6.57;;
53881;SDS011;39794;55.782;37.452;2023-12-22T09:14:08;9.88;;;5.88;;
53881;SDS011;39794;55.782;37.452;2023-12-22T09:16:37;11.30;;;6.90;;
53881;SDS011;39794;55.782;37.452;2023-12-22T09:19:06;10.25;;;6.22;;
53881;SDS011;39794;55.782;37.452;2023-12-22T09:21:34;13.65;;;7.10;;
53881;SDS011;39794;55.782;37.452;2023-12-22T09:24:05;9.90;;;6.35;;
53881;SDS011;39794;55.782;37.452;2023-12-22T09:26:33;10.77;;;6.47;;
53881;SDS011;39794;55.782;37.452;2023-12-22T09:29:02;10.43;;;6.30;;
53881;SDS011;39794;55.782;37.452;2023-12-22T09:31:30;13.25;;;6.75;;
53881;SDS011;39794;55.782;37.452;2023-12-22T09:33:59;10.30;;;6.75;;
53881;SDS011;39794;55.782;37.452;2023-12-22T09:36:30;13.68;;;7.60;;
53881;SDS011;39794;55.782;37.452;2023-12-22T09:38:58;11.68;;;7.47;;
53881;SDS011;39794;55.782;37.452;2023-12-22T09:41:28;14.00;;;7.18;;
53881;SDS011;39794;55.782;37.452;2023-12-22T09:43:57;13.82;;;7.70;;
53881;SDS011;39794;55.782;37.452;2023-12-22T09:46:26;13.77;;;8.02;;
53881;SDS011;39794;55.782;37.452;2023-12-22T09:48:56;14.25;;;8.18;;
53881;SDS011;39794;55.782;37.452;2023-12-22T09:51:25;15.85;;;8.77;;
53881;SDS011;39794;55.782;37.452;2023-12-22T09:53:55;17.52;;;9.07;;
53881;SDS011;39794;55.782;37.452;2023-12-22T09:56:29;16.40;;;10.32;;
53881;SDS011;39794;55.782;37.452;2023-12-22T09:58:58;13.07;;;8.00;;
53881;SDS011;39794;55.782;37.452;2023-12-22T10:01:27;18.88;;;10.00;;
53881;SDS011;39794;55.782;37.452;2023-12-22T10:03:56;18.88;;;11.32;;
53881;SDS011;39794;55.782;37.452;2023-12-22T10:06:25;19.58;;;10.52;;
53881;SDS011;39794;55.782;37.452;2023-12-22T10:08:54;17.33;;;9.23;;
53881;SDS011;39794;55.782;37.452;2023-12-22T10:11:24;18.80;;;10.50;;
53881;SDS011;39794;55.782;37.452;2023-12-22T10:13:55;19.20;;;11.30;;
53881;SDS011;39794;55.782;37.452;2023-12-22T10:16:23;17.92;;;10.23;;
53881;SDS011;39794;55.782;37.452;2023-12-22T10:18:52;20.45;;;10.93;;
53881;SDS011;39794;55.782;37.452;2023-12-22T10:21:21;15.57;;;9.35;;
53881;SDS011;39794;55.782;37.452;2023-12-22T10:23:50;18.17;;;9.82;;
53881;SDS011;39794;55.782;37.452;2023-12-22T10:26:19;20.15;;;11.02;;
53881;SDS011;39794;55.782;37.452;2023-12-22T10:28:48;16.17;;;9.60;;
53881;SDS011;39794;55.782;37.452;2023-12-22T10:31:18;18.30;;;10.32;;
53881;SDS011;39794;55.782;37.452;2023-12-22T10:33:47;17.10;;;10.27;;
53881;SDS011;39794;55.782;37.452;2023-12-22T10:36:16;16.60;;;9.48;;
53881;SDS011;39794;55.782;37.452;2023-12-22T10:38:45;18.30;;;9.50;;
53881;SDS011;39794;55.782;37.452;2023-12-22T10:41:13;16.27;;;8.30;;
53881;SDS011;39794;55.782;37.452;2023-12-22T10:43:42;16.65;;;9.85;;
53881;SDS011;39794;55.782;37.452;2023-12-22T10:46:11;16.15;;;8.95;;
53881;SDS011;39794;55.782;37.452;2023-12-22T10:48:41;17.25;;;10.23;;
53881;SDS011;39794;55.782;37.452;2023-12-22T10:51:10;18.63;;;9.38;;
53881;SDS011;39794;55.782;37.452;2023-12-22T10:53:42;18.55;;;9.95;;
53881;SDS011;39794;55.782;37.452;2023-12-22T10:56:10;15.43;;;7.93;;
53881;SDS011;39794;55.782;37.452;2023-12-22T10:58:39;14.85;;;8.43;;
53881;SDS011;39794;55.782;37.452;2023-12-22T11:01:08;15.18;;;8.65;;
53881;SDS011;39794;55.782;37.452;2023-12-22T11:03:38;13.95;;;8.60;;
53881;SDS011;39794;55.782;37.452;2023-12-22T11:06:09;15.70;;;9.10;;
53881;SDS011;39794;55.782;37.452;2023-12-22T11:08:38;13.07;;;7.55;;
53881;SDS011;39794;55.782;37.452;2023-12-22T11:11:09;13.93;;;7.88;;
53881;SDS011;39794;55.782;37.452;2023-12-22T11:13:43;13.65;;;8.38;;
53881;SDS011;39794;55.782;37.452;2023-12-22T11:16:11;13.35;;;7.90;;
53881;SDS011;39794;55.782;37.452;2023-12-22T11:18:40;13.02;;;7.28;;
53881;SDS011;39794;55.782;37.452;2023-12-22T11:21:10;12.63;;;6.63;;
53881;SDS011;39794;55.782;37.452;2023-12-22T11:23:39;13.23;;;7.80;;
53881;SDS011;39794;55.782;37.452;2023-12-22T11:26:08;13.35;;;7.55;;
53881;SDS011;39794;55.782;37.452;2023-12-22T11:28:39;14.57;;;8.68;;
53881;SDS011;39794;55.782;37.452;2023-12-22T11:31:10;15.45;;;7.90;;
53881;SDS011;39794;55.782;37.452;2023-12-22T11:33:43;12.88;;;7.03;;
53881;SDS011;39794;55.782;37.452;2023-12-22T11:36:31;12.05;;;7.40;;
53881;SDS011;39794;55.782;37.452;2023-12-22T11:39:00;10.95;;;6.97;;
53881;SDS011;39794;55.782;37.452;2023-12-22T11:41:29;14.18;;;7.90;;
53881;SDS011;39794;55.782;37.452;2023-12-22T11:43:59;14.77;;;7.15;;
53881;SDS011;39794;55.782;37.452;2023-12-22T11:46:30;12.93;;;7.45;;
53881;SDS011;39794;55.782;37.452;2023-12-22T11:49:01;16.20;;;7.32;;
53881;SDS011;39794;55.782;37.452;2023-12-22T11:51:32;12.35;;;7.10;;
53881;SDS011;39794;55.782;37.452;2023-12-22T11:54:02;12.85;;;7.63;;
53881;SDS011;39794;55.782;37.452;2023-12-22T11:56:31;13.32;;;7.60;;
53881;SDS011;39794;55.782;37.452;2023-12-22T11:58:59;11.55;;;6.40;;
53881;SDS011;39794;55.782;37.452;2023-12-22T12:01:28;9.95;;;6.47;;
53881;SDS011;39794;55.782;37.452;2023-12-22T12:04:01;12.98;;;7.18;;
53881;SDS011;39794;55.782;37.452;2023-12-22T12:06:34;11.90;;;6.50;;
53881;SDS011;39794;55.782;37.452;2023-12-22T12:09:06;12.25;;;6.70;;
53881;SDS011;39794;55.782;37.452;2023-12-22T12:14:40;11.50;;;7.15;;
53881;SDS011;39794;55.782;37.452;2023-12-22T12:17:09;11.63;;;5.45;;
53881;SDS011;39794;55.782;37.452;2023-12-22T12:19:39;11.57;;;7.07;;
53881;SDS011;39794;55.782;37.452;2023-12-22T12:22:11;17.23;;;5.80;;
53881;SDS011;39794;55.782;37.452;2023-12-22T12:24:40;12.18;;;7.40;;
53881;SDS011;39794;55.782;37.452;2023-12-22T12:27:09;11.13;;;7.20;;
53881;SDS011;39794;55.782;37.452;2023-12-22T12:29:39;14.75;;;7.68;;
53881;SDS011;39794;55.782;37.452;2023-12-22T12:32:08;13.68;;;7.05;;
53881;SDS011;39794;55.782;37.452;2023-12-22T12:34:36;10.82;;;6.88;;
53881;SDS011;39794;55.782;37.452;2023-12-22T12:37:05;10.27;;;6.38;;
53881;SDS011;39794;55.782;37.452;2023-12-22T12:39:36;10.88;;;5.80;;
53881;SDS011;39794;55.782;37.452;2023-12-22T12:42:07;9.38;;;5.47;;
53881;SDS011;39794;55.782;37.452;2023-12-22T12:44:35;12.52;;;7.40;;
53881;SDS011;39794;55.782;37.452;2023-12-22T12:47:11;14.40;;;7.40;;
53881;SDS011;39794;55.782;37.452;2023-12-22T12:49:41;11.15;;;6.80;;
53881;SDS011;39794;55.782;37.452;2023-12-22T12:52:12;11.48;;;6.00;;
53881;SDS011;39794;55.782;37.452;2023-12-22T12:54:42;15.50;;;7.03;;
53881;SDS011;39794;55.782;37.452;2023-12-22T12:57:13;11.35;;;7.05;;
53881;SDS011;39794;55.782;37.452;2023-12-22T12:59:46;9.82;;;5.95;;
53881;SDS011;39794;55.782;37.452;2023-12-22T13:02:16;12.65;;;7.05;;
53881;SDS011;39794;55.782;37.452;2023-12-22T13:04:46;10.90;;;6.22;;
53881;SDS011;39794;55.782;37.452;2023-12-22T13:07:23;9.00;;;5.47;;
53881;SDS011;39794;55.782;37.452;2023-12-22T13:09:54;10.45;;;6.60;;
53881;SDS011;39794;55.782;37.452;2023-12-22T13:12:23;12.05;;;6.90;;
53881;SDS011;39794;55.782;37.452;2023-12-22T13:14:52;11.23;;;5.90;;
53881;SDS011;39794;55.782;37.452;2023-12-22T13:17:21;8.27;;;5.60;;
53881;SDS011;39794;55.782;37.452;2023-12-22T13:19:50;10.63;;;6.38;;
53881;SDS011;39794;55.782;37.452;2023-12-22T13:22:19;12.23;;;6.38;;
53881;SDS011;39794;55.782;37.452;2023-12-22T13:24:56;10.48;;;6.50;;
53881;SDS011;39794;55.782;37.452;2023-12-22T13:27:25;13.48;;;6.78;;
53881;SDS011;39794;55.782;37.452;2023-12-22T13:29:53;12.68;;;6.95;;
53881;SDS011;39794;55.782;37.452;2023-12-22T13:32:22;13.43;;;6.78;;
53881;SDS011;39794;55.782;37.452;2023-12-22T13:34:52;11.77;;;6.35;;
53881;SDS011;39794;55.782;37.452;2023-12-22T13:37:22;10.60;;;7.18;;
53881;SDS011;39794;55.782;37.452;2023-12-22T13:39:54;11.80;;;7.15;;
53881;SDS011;39794;55.782;37.452;2023-12-22T13:42:24;12.30;;;7.35;;
53881;SDS011;39794;55.782;37.452;2023-12-22T13:44:53;12.02;;;7.22;;
53881;SDS011;39794;55.782;37.452;2023-12-22T13:47:21;14.30;;;6.82;;
53881;SDS011;39794;55.782;37.452;2023-12-22T13:49:53;12.30;;;6.57;;
53881;SDS011;39794;55.782;37.452;2023-12-22T13:52:26;14.73;;;8.13;;
53881;SDS011;39794;55.782;37.452;2023-12-22T13:55:01;13.40;;;8.20;;
53881;SDS011;39794;55.782;37.452;2023-12-22T13:57:30;17.00;;;7.90;;
53881;SDS011;39794;55.782;37.452;2023-12-22T13:59:59;14.80;;;7.70;;
53881;SDS011;39794;55.782;37.452;2023-12-22T14:02:30;13.73;;;7.60;;
53881;SDS011;39794;55.782;37.452;2023-12-22T14:04:58;11.43;;;6.15;;
53881;SDS011;39794;55.782;37.452;2023-12-22T14:07:28;14.50;;;7.80;;
53881;SDS011;39794;55.782;37.452;2023-12-22T14:09:57;13.98;;;8.13;;
53881;SDS011;39794;55.782;37.452;2023-12-22T14:12:27;16.05;;;7.10;;
53881;SDS011;39794;55.782;37.452;2023-12-22T14:15:03;14.02;;;7.45;;
53881;SDS011;39794;55.782;37.452;2023-12-22T14:17:33;14.63;;;7.93;;
53881;SDS011;39794;55.782;37.452;2023-12-22T14:20:02;12.80;;;7.35;;
53881;SDS011;39794;55.782;37.452;2023-12-22T14:22:31;12.65;;;6.78;;
53881;SDS011;39794;55.782;37.452;2023-12-22T14:25:00;11.35;;;7.00;;
53881;SDS011;39794;55.782;37.452;2023-12-22T14:27:32;12.18;;;7.28;;
53881;SDS011;39794;55.782;37.452;2023-12-22T14:30:00;12.40;;;7.00;;
53881;SDS011;39794;55.782;37.452;2023-12-22T14:32:31;11.95;;;6.85;;
53881;SDS011;39794;55.782;37.452;2023-12-22T14:34:59;12.70;;;7.20;;
53881;SDS011;39794;55.782;37.452;2023-12-22T14:37:32;10.55;;;7.20;;
53881;SDS011;39794;55.782;37.452;2023-12-22T14:40:01;11.25;;;7.25;;
53881;SDS011;39794;55.782;37.452;2023-12-22T14:42:31;12.65;;;7.22;;
53881;SDS011;39794;55.782;37.452;2023-12-22T14:45:00;13.10;;;7.65;;